フランクフルト の空港の天気 - METARとTAF

フランクフルト国際空港 ( EDDF / FRA ) - ドイツ フランクフルト・アム・マイン
飛行場実況気象(Metar)
観測時間09/25 05:50 CEST (09/25 03:50 UTC)
風向・風速不定 1m/s
視程10km以上
天気現象地霧
なし
気温3℃
湿度100%
気圧1037hPa
METAREDDF 250350Z VRB02KT 9999 MIFG NSC 03/03 Q1037 NOSIG
過去の天気等 Google飛行場航空写真 Wunderground天気予報

過去48時間のMETAR

飛行場予報(TAF)
発表時間: 9/25 01:00 CEST (9/24 23:00 UTC)
予報対象時間: 25日2時 CEST ~ 26日8時 CEST
風向・風速不定 2m/s
視程10km以上
なし
25日6時 CEST ~ 25日10時 CEST に徐々に
風向・風速北東 3m/s
TAF EDDF 242300Z 2500/2606 VRB03KT CAVOK
BECMG 2504/2508 04005KT